createdAt,value
2019-06-10T00:01:31.318Z,12.05
2019-06-10T00:04:08.650Z,12.37
2019-06-10T00:06:41.557Z,12.47
2019-06-10T00:09:15.788Z,12.70
2019-06-10T00:11:51.550Z,12.73
2019-06-10T00:14:25.610Z,12.33
2019-06-10T00:17:01.974Z,12.53
2019-06-10T00:19:35.613Z,12.55
2019-06-10T00:22:11.550Z,12.50
2019-06-10T00:24:45.599Z,12.50
2019-06-10T00:27:21.576Z,12.45
2019-06-10T00:29:55.754Z,12.63
2019-06-10T00:32:32.066Z,12.85
2019-06-10T00:35:07.671Z,12.60
2019-06-10T00:37:42.057Z,12.93
2019-06-10T00:40:16.521Z,13.35
2019-06-10T00:42:50.843Z,13.15
2019-06-10T00:45:25.124Z,13.15
2019-06-10T00:48:13.510Z,13.22
2019-06-10T00:50:35.411Z,13.22
2019-06-10T00:53:12.464Z,13.85
2019-06-10T00:55:45.746Z,12.93
2019-06-10T00:58:21.708Z,13.38
2019-06-10T01:00:55.743Z,13.65
2019-06-10T01:03:31.334Z,13.72
2019-06-10T01:06:06.467Z,13.80
2019-06-10T01:08:40.658Z,14.65
2019-06-10T01:11:21.228Z,15.00
2019-06-10T01:13:50.829Z,15.00
2019-06-10T01:16:25.007Z,15.50
2019-06-10T01:19:01.258Z,15.20
2019-06-10T01:21:35.136Z,16.00
2019-06-10T01:24:11.616Z,16.50
2019-06-10T01:26:45.605Z,16.27
2019-06-10T01:29:21.047Z,16.73
2019-06-10T01:31:58.678Z,16.30
2019-06-10T01:34:32.793Z,16.15
2019-06-10T01:37:07.154Z,16.40
2019-06-10T01:39:41.292Z,17.37
2019-06-10T01:42:17.103Z,17.45
2019-06-10T01:44:52.683Z,17.23
2019-06-10T01:47:27.266Z,17.52
2019-06-10T01:50:01.873Z,17.77
2019-06-10T01:52:35.828Z,18.60
2019-06-10T01:55:13.478Z,19.30
2019-06-10T01:57:46.884Z,19.75
2019-06-10T02:00:25.973Z,19.65
2019-06-10T02:03:02.806Z,21.25
2019-06-10T02:05:35.026Z,20.35
2019-06-10T02:08:11.326Z,21.23
2019-06-10T02:10:45.013Z,20.62
2019-06-10T02:13:33.378Z,21.35
2019-06-10T02:16:08.163Z,22.13
2019-06-10T02:18:56.791Z,22.00
2019-06-10T02:21:21.754Z,22.35
2019-06-10T02:23:54.324Z,22.15
2019-06-10T02:26:30.747Z,22.30
2019-06-10T02:29:04.438Z,22.25
2019-06-10T02:31:38.707Z,23.20
2019-06-10T02:34:19.692Z,23.83
2019-06-10T02:36:53.447Z,22.75
2019-06-10T02:39:33.450Z,23.62
2019-06-10T02:42:07.375Z,23.67
2019-06-10T02:44:44.554Z,23.98
2019-06-10T02:47:21.332Z,23.55
2019-06-10T02:50:01.975Z,23.57
2019-06-10T02:52:34.133Z,23.12
2019-06-10T02:55:06.311Z,23.12
2019-06-10T02:57:44.031Z,23.20
2019-06-10T03:00:24.791Z,23.30
2019-06-10T03:02:53.068Z,23.38
2019-06-10T03:05:34.457Z,23.52
2019-06-10T03:08:04.057Z,22.65
2019-06-10T03:10:38.461Z,22.00
2019-06-10T03:13:12.727Z,22.98
2019-06-10T03:15:52.246Z,22.70
2019-06-10T03:18:26.735Z,21.37
2019-06-10T03:21:02.670Z,21.60
2019-06-10T03:23:37.267Z,21.87
2019-06-10T03:26:12.361Z,21.35
2019-06-10T03:28:46.673Z,21.77
2019-06-10T03:31:28.412Z,21.62
2019-06-10T03:33:56.894Z,21.02
2019-06-10T03:36:32.284Z,20.70
2019-06-10T03:39:08.537Z,20.52
2019-06-10T03:41:42.821Z,20.62
2019-06-10T03:44:17.230Z,20.50
2019-06-10T03:46:52.383Z,21.02
2019-06-10T03:49:28.478Z,22.30
2019-06-10T03:52:02.666Z,20.85
2019-06-10T03:54:37.324Z,20.88
2019-06-10T03:57:12.086Z,19.87
2019-06-10T03:59:46.349Z,20.50
2019-06-10T04:02:23.450Z,19.73
2019-06-10T04:04:56.543Z,19.15
2019-06-10T04:07:33.666Z,19.07
2019-06-10T04:10:06.861Z,18.73
2019-06-10T04:12:43.262Z,18.15
2019-06-10T04:15:19.581Z,17.73
2019-06-10T04:17:53.634Z,18.50
2019-06-10T04:20:29.513Z,16.73
2019-06-10T04:23:03.819Z,18.00
2019-06-10T04:25:42.767Z,18.25
2019-06-10T04:28:17.788Z,18.07
2019-06-10T04:30:53.565Z,17.35
2019-06-10T04:33:28.815Z,29.30
2019-06-10T04:36:03.211Z,23.20
2019-06-10T04:38:37.562Z,22.65
2019-06-10T04:41:12.615Z,22.27
2019-06-10T04:43:46.982Z,22.62
2019-06-10T04:46:23.642Z,21.10
2019-06-10T04:48:57.260Z,20.27
2019-06-10T04:51:32.863Z,20.32
2019-06-10T04:54:07.254Z,21.17
2019-06-10T04:56:42.886Z,19.73
2019-06-10T04:59:17.150Z,20.70
2019-06-10T05:01:53.041Z,21.73
2019-06-10T05:04:28.720Z,21.50
2019-06-10T05:07:03.377Z,20.27
2019-06-10T05:09:37.731Z,20.02
2019-06-10T05:12:12.182Z,20.30
2019-06-10T05:14:46.414Z,19.98
2019-06-10T05:17:22.173Z,19.73
2019-06-10T05:19:56.684Z,19.02
2019-06-10T05:22:32.754Z,19.02
2019-06-10T05:25:06.968Z,18.23
2019-06-10T05:27:42.903Z,18.00
2019-06-10T05:30:17.689Z,18.30
2019-06-10T05:32:52.420Z,16.82
2019-06-10T05:35:28.472Z,17.48
2019-06-10T05:38:03.802Z,16.65
2019-06-10T05:40:37.810Z,18.55
2019-06-10T05:43:13.046Z,17.02
2019-06-10T05:45:47.531Z,16.50
2019-06-10T05:48:22.686Z,16.60
2019-06-10T05:51:02.879Z,17.67
2019-06-10T05:53:35.557Z,15.85
2019-06-10T05:56:12.627Z,16.02
2019-06-10T05:58:46.050Z,16.75
2019-06-10T06:01:22.417Z,15.83
2019-06-10T06:03:57.491Z,16.62
2019-06-10T06:06:33.446Z,16.57
2019-06-10T06:09:09.107Z,16.97
2019-06-10T06:11:43.318Z,16.42
2019-06-10T06:14:17.539Z,16.25
2019-06-10T06:16:53.403Z,16.60
2019-06-10T06:19:28.185Z,16.02
2019-06-10T06:22:02.383Z,16.37
2019-06-10T06:24:37.881Z,15.45
2019-06-10T06:27:13.094Z,17.23
2019-06-10T06:29:47.418Z,16.67
2019-06-10T06:32:23.632Z,15.40
2019-06-10T06:34:57.853Z,15.23
2019-06-10T06:37:35.995Z,15.83
2019-06-10T06:40:08.661Z,15.63
2019-06-10T06:42:43.463Z,15.72
2019-06-10T06:45:18.848Z,15.05
2019-06-10T06:47:53.103Z,15.38
2019-06-10T06:50:28.432Z,15.23
2019-06-10T06:53:21.180Z,14.93
2019-06-10T06:55:39.792Z,15.20
2019-06-10T06:58:13.870Z,15.75
2019-06-10T07:01:01.414Z,15.28
2019-06-10T07:03:23.878Z,15.23
2019-06-10T07:05:58.227Z,14.35
2019-06-10T07:08:36.153Z,15.90
2019-06-10T07:11:10.397Z,14.47
2019-06-10T07:13:46.528Z,15.70
2019-06-10T07:16:23.024Z,15.72
2019-06-10T07:18:56.613Z,15.30
2019-06-10T07:21:33.181Z,15.23
2019-06-10T07:24:06.665Z,15.25
2019-06-10T07:26:46.199Z,14.93
2019-06-10T07:29:17.118Z,15.00
2019-06-10T07:31:53.664Z,16.15
2019-06-10T07:34:27.463Z,15.13
2019-06-10T07:37:02.609Z,15.03
2019-06-10T07:39:38.011Z,14.65
2019-06-10T07:42:13.744Z,14.20
2019-06-10T07:44:49.039Z,14.50
2019-06-10T07:47:23.289Z,14.33
2019-06-10T07:49:57.683Z,15.20
2019-06-10T07:52:33.150Z,15.15
2019-06-10T07:55:08.305Z,15.00
2019-06-10T07:57:44.371Z,15.48
2019-06-10T08:00:18.848Z,14.70
2019-06-10T08:02:53.122Z,14.28
2019-06-10T08:05:27.515Z,14.53
2019-06-10T08:08:02.846Z,14.55
2019-06-10T08:10:37.115Z,13.78
2019-06-10T08:13:12.054Z,15.20
2019-06-10T08:15:46.466Z,13.88
2019-06-10T08:18:22.540Z,14.60
2019-06-10T08:20:56.940Z,14.40
2019-06-10T08:23:32.820Z,13.28
2019-06-10T08:26:06.901Z,13.83
2019-06-10T08:28:42.506Z,13.75
2019-06-10T08:31:17.155Z,13.80
2019-06-10T08:33:53.394Z,12.63
2019-06-10T08:36:27.432Z,12.88
2019-06-10T08:39:03.209Z,13.45
2019-06-10T08:41:38.436Z,12.75
2019-06-10T08:44:12.866Z,12.93
2019-06-10T08:46:48.566Z,12.23
2019-06-10T08:49:24.037Z,13.00
2019-06-10T08:51:58.190Z,12.18
2019-06-10T08:54:32.718Z,12.18
2019-06-10T08:57:06.964Z,12.10
2019-06-10T08:59:45.628Z,12.10
2019-06-10T09:02:17.293Z,11.88
2019-06-10T09:04:53.528Z,12.13
2019-06-10T09:07:28.330Z,11.43
2019-06-10T09:10:03.111Z,11.25
2019-06-10T09:12:38.435Z,11.43
2019-06-10T09:15:15.820Z,10.45
2019-06-10T09:17:52.985Z,10.50
2019-06-10T09:20:26.219Z,10.15
2019-06-10T09:23:17.803Z,9.58
2019-06-10T09:25:36.505Z,10.05
2019-06-10T09:28:12.844Z,9.98
2019-06-10T09:30:53.007Z,9.10
2019-06-10T09:33:23.310Z,9.43
2019-06-10T09:35:57.598Z,9.63
2019-06-10T09:38:33.409Z,8.80
2019-06-10T09:41:08.254Z,8.73
2019-06-10T09:43:46.880Z,8.58
2019-06-10T09:46:23.274Z,8.35
2019-06-10T09:48:57.738Z,8.15
2019-06-10T09:51:32.394Z,7.65
2019-06-10T09:54:07.126Z,8.50
2019-06-10T09:56:44.076Z,7.90
2019-06-10T09:59:18.027Z,8.25
2019-06-10T10:01:58.112Z,8.30
2019-06-10T10:04:28.331Z,8.35
2019-06-10T10:07:03.208Z,8.73
2019-06-10T10:09:37.731Z,8.53
2019-06-10T10:12:12.289Z,8.30
2019-06-10T10:14:48.513Z,7.72
2019-06-10T10:17:24.141Z,8.13
2019-06-10T10:19:58.521Z,8.23
2019-06-10T10:22:33.577Z,7.12
2019-06-10T10:25:08.635Z,7.40
2019-06-10T10:27:48.869Z,7.25
2019-06-10T10:30:24.408Z,7.87
2019-06-10T10:32:58.579Z,6.90
2019-06-10T10:35:33.202Z,7.30
2019-06-10T10:38:07.599Z,7.22
2019-06-10T10:40:43.984Z,7.25
2019-06-10T10:43:28.939Z,6.78
2019-06-10T10:45:59.942Z,6.78
2019-06-10T10:48:29.949Z,6.62
2019-06-10T10:51:04.032Z,6.15
2019-06-10T10:53:38.667Z,6.50
2019-06-10T10:56:13.290Z,6.92
2019-06-10T10:58:48.933Z,6.25
2019-06-10T11:01:23.840Z,6.08
2019-06-10T11:03:59.261Z,7.25
2019-06-10T11:06:33.641Z,6.35
2019-06-10T11:09:13.025Z,6.62
2019-06-10T11:11:48.833Z,6.22
2019-06-10T11:14:23.227Z,6.35
2019-06-10T11:16:58.888Z,6.45
2019-06-10T11:19:34.432Z,6.60
2019-06-10T11:22:08.777Z,5.83
2019-06-10T11:24:44.892Z,6.45
2019-06-10T11:27:19.341Z,6.08
2019-06-10T11:29:56.474Z,6.65
2019-06-10T11:32:29.709Z,5.80
2019-06-10T11:35:04.257Z,6.03
2019-06-10T11:37:39.497Z,6.10
2019-06-10T11:40:13.884Z,5.72
2019-06-10T11:42:48.379Z,5.45
2019-06-10T11:45:23.103Z,5.60
2019-06-10T11:47:58.262Z,5.30
2019-06-10T11:50:33.448Z,6.20
2019-06-10T11:53:07.979Z,5.40
2019-06-10T11:55:42.442Z,5.75
2019-06-10T11:58:16.686Z,5.22
2019-06-10T12:00:55.884Z,5.47
2019-06-10T12:03:27.041Z,5.67
2019-06-10T12:06:05.343Z,5.50
2019-06-10T12:08:37.243Z,5.22
2019-06-10T12:11:12.639Z,5.87
2019-06-10T12:13:46.949Z,5.60
2019-06-10T12:17:14.840Z,5.42
2019-06-10T12:18:58.633Z,5.80
2019-06-10T12:21:33.899Z,5.37
2019-06-10T12:24:08.117Z,5.45
2019-06-10T12:26:50.334Z,5.58
2019-06-10T12:29:24.366Z,5.92
2019-06-10T12:32:01.604Z,5.55
2019-06-10T12:34:34.494Z,5.65
2019-06-10T12:37:13.043Z,5.47
2019-06-10T12:39:44.543Z,5.20
2019-06-10T12:42:22.283Z,6.10
2019-06-10T12:44:57.273Z,5.83
2019-06-10T12:47:34.241Z,5.78
2019-06-10T12:50:12.044Z,5.53
2019-06-10T12:52:46.006Z,5.42
2019-06-10T12:55:37.591Z,5.03
2019-06-10T12:57:56.216Z,5.10
2019-06-10T13:00:33.852Z,5.47
2019-06-10T13:03:07.993Z,5.65
2019-06-10T13:05:44.631Z,5.60
2019-06-10T13:08:20.617Z,5.12
2019-06-10T13:10:56.360Z,5.37
2019-06-10T13:13:32.733Z,6.08
2019-06-10T13:16:09.165Z,6.28
2019-06-10T13:18:42.879Z,5.85
2019-06-10T13:21:17.934Z,6.12
2019-06-10T13:23:54.136Z,6.17
2019-06-10T13:26:28.417Z,5.90
2019-06-10T13:29:06.544Z,5.42
2019-06-10T13:31:38.856Z,5.95
2019-06-10T13:34:14.716Z,6.22
2019-06-10T13:36:49.573Z,6.03
2019-06-10T13:39:26.932Z,6.03
2019-06-10T13:42:03.251Z,5.95
2019-06-10T13:44:36.329Z,6.15
2019-06-10T13:47:14.610Z,6.03
2019-06-10T13:49:46.682Z,6.70
2019-06-10T13:52:23.253Z,7.00
2019-06-10T13:54:57.163Z,7.55
2019-06-10T13:57:32.237Z,6.90
2019-06-10T14:00:08.551Z,7.08
2019-06-10T14:02:43.130Z,8.50
2019-06-10T14:05:18.624Z,9.30
2019-06-10T14:07:55.040Z,8.60
2019-06-10T14:10:28.857Z,8.83
2019-06-10T14:13:03.973Z,9.43
2019-06-10T14:15:39.268Z,9.28
2019-06-10T14:18:15.237Z,9.95
2019-06-10T14:20:52.780Z,8.68
2019-06-10T14:23:26.316Z,9.03
2019-06-10T14:26:04.147Z,8.53
2019-06-10T14:28:40.987Z,8.20
2019-06-10T14:31:33.706Z,8.45
2019-06-10T14:33:47.744Z,8.20
2019-06-10T14:36:22.266Z,8.93
2019-06-10T14:38:56.492Z,8.70
2019-06-10T14:41:32.688Z,8.38
2019-06-10T14:44:06.969Z,8.23
2019-06-10T14:46:42.517Z,8.75
2019-06-10T14:49:16.996Z,9.00
2019-06-10T14:51:53.666Z,8.88
2019-06-10T14:54:27.025Z,8.23
2019-06-10T14:57:02.729Z,8.50
2019-06-10T14:59:36.730Z,8.48
2019-06-10T15:02:12.851Z,8.00
2019-06-10T15:04:46.655Z,8.43
2019-06-10T15:07:23.920Z,8.93
2019-06-10T15:09:58.325Z,9.25
2019-06-10T15:12:32.767Z,8.60
2019-06-10T15:15:08.168Z,8.35
2019-06-10T15:17:43.099Z,8.85
2019-06-10T15:20:18.176Z,9.03
2019-06-10T15:22:52.768Z,8.70
2019-06-10T15:25:28.244Z,9.15
2019-06-10T15:28:03.246Z,9.30
2019-06-10T15:30:37.246Z,9.40
2019-06-10T15:33:14.714Z,9.88
2019-06-10T15:35:47.662Z,10.03
2019-06-10T15:38:23.272Z,9.03
2019-06-10T15:40:57.871Z,10.15
2019-06-10T15:43:33.046Z,9.60
2019-06-10T15:46:09.823Z,9.50
2019-06-10T15:48:44.059Z,9.93
2019-06-10T15:51:21.018Z,9.90
2019-06-10T15:53:54.142Z,10.13
2019-06-10T15:56:39.850Z,10.60
2019-06-10T15:59:04.605Z,10.68
2019-06-10T16:01:39.165Z,10.82
2019-06-10T16:04:16.009Z,12.07
2019-06-10T16:06:50.084Z,11.30
2019-06-10T16:09:24.255Z,11.18
2019-06-10T16:11:58.820Z,11.48
2019-06-10T16:14:33.329Z,11.80
2019-06-10T16:17:07.563Z,11.80
2019-06-10T16:19:43.187Z,11.83
2019-06-10T16:22:17.469Z,11.80
2019-06-10T16:24:52.566Z,12.55
2019-06-10T16:27:43.653Z,12.88
2019-06-10T16:30:03.226Z,12.33
2019-06-10T16:32:37.902Z,12.25
2019-06-10T16:35:13.082Z,12.45
2019-06-10T16:37:47.552Z,13.13
2019-06-10T16:40:23.873Z,12.93
2019-06-10T16:42:57.867Z,13.30
2019-06-10T16:45:34.005Z,12.85
2019-06-10T16:48:07.748Z,13.68
2019-06-10T16:50:42.598Z,15.48
2019-06-10T16:53:17.935Z,14.63
2019-06-10T16:55:52.941Z,16.62
2019-06-10T16:58:28.465Z,16.77
2019-06-10T17:01:03.938Z,17.52
2019-06-10T17:03:38.590Z,17.15
2019-06-10T17:06:13.199Z,17.15
2019-06-10T17:08:47.666Z,16.42
2019-06-10T17:11:24.142Z,16.45
2019-06-10T17:13:57.871Z,17.30
2019-06-10T17:16:32.067Z,15.60
2019-06-10T17:19:06.304Z,16.50
2019-06-10T17:21:42.203Z,16.02
2019-06-10T17:24:16.505Z,16.30
2019-06-10T17:26:53.059Z,15.90
2019-06-10T17:29:28.501Z,16.00
2019-06-10T17:32:02.879Z,15.80
2019-06-10T17:34:36.844Z,15.35
2019-06-10T17:37:12.518Z,16.23
2019-06-10T17:39:46.610Z,15.53
2019-06-10T17:42:24.646Z,15.75
2019-06-10T17:44:56.751Z,16.00
2019-06-10T17:47:32.410Z,15.43
2019-06-10T17:50:08.324Z,15.80
2019-06-10T17:52:42.755Z,15.40
2019-06-10T17:55:17.395Z,16.20
2019-06-10T17:57:51.691Z,14.83
2019-06-10T18:00:27.447Z,14.95
2019-06-10T18:03:03.681Z,15.10
2019-06-10T18:05:38.354Z,14.87
2019-06-10T18:08:13.187Z,15.48
2019-06-10T18:10:47.566Z,16.37
2019-06-10T18:13:22.724Z,15.15
2019-06-10T18:15:57.831Z,15.20
2019-06-10T18:18:35.631Z,14.90
2019-06-10T18:21:08.332Z,15.08
2019-06-10T18:23:43.530Z,15.63
2019-06-10T18:26:17.580Z,16.15
2019-06-10T18:29:04.370Z,15.80
2019-06-10T18:31:27.898Z,16.35
2019-06-10T18:34:02.550Z,16.02
2019-06-10T18:36:37.677Z,15.53
2019-06-10T18:39:12.407Z,18.05
2019-06-10T18:41:46.700Z,18.05
2019-06-10T18:44:24.061Z,17.50
2019-06-10T18:46:56.772Z,17.70
2019-06-10T18:49:34.352Z,17.42
2019-06-10T18:52:07.702Z,17.73
2019-06-10T18:54:43.537Z,16.67
2019-06-10T18:57:19.862Z,17.00
2019-06-10T18:59:54.092Z,16.95
2019-06-10T19:02:28.373Z,17.70
2019-06-10T19:05:02.896Z,17.45
2019-06-10T19:07:38.703Z,17.15
2019-06-10T19:10:14.312Z,17.60
2019-06-10T19:12:49.371Z,18.30
2019-06-10T19:15:23.603Z,17.35
2019-06-10T19:17:57.723Z,17.05
2019-06-10T19:20:36.565Z,17.32
2019-06-10T19:23:07.919Z,17.85
2019-06-10T19:25:44.408Z,17.45
2019-06-10T19:28:18.411Z,18.20
2019-06-10T19:30:53.878Z,17.02
2019-06-10T19:33:28.167Z,16.25
2019-06-10T19:36:02.394Z,17.80
2019-06-10T19:38:38.295Z,17.35
2019-06-10T19:41:12.771Z,17.40
2019-06-10T19:43:46.720Z,18.02
2019-06-10T19:46:23.336Z,17.92
2019-06-10T19:49:03.233Z,17.35
2019-06-10T19:51:34.702Z,17.00
2019-06-10T19:54:09.695Z,17.57
2019-06-10T19:56:43.867Z,17.20
2019-06-10T19:59:17.974Z,16.70
2019-06-10T20:01:54.102Z,17.45
2019-06-10T20:04:28.075Z,17.10
2019-06-10T20:07:02.480Z,17.48
2019-06-10T20:09:36.607Z,17.20
2019-06-10T20:12:12.501Z,16.62
2019-06-10T20:14:47.847Z,18.90
2019-06-10T20:17:22.788Z,18.15
2019-06-10T20:19:56.990Z,17.85
2019-06-10T20:22:32.038Z,17.70
2019-06-10T20:25:12.492Z,17.50
2019-06-10T20:27:46.120Z,18.10
2019-06-10T20:30:27.995Z,18.55
2019-06-10T20:32:56.857Z,18.50
2019-06-10T20:35:32.673Z,17.27
2019-06-10T20:38:07.242Z,17.85
2019-06-10T20:40:43.095Z,17.87
2019-06-10T20:43:17.465Z,18.50
2019-06-10T20:45:51.563Z,18.32
2019-06-10T20:48:25.746Z,17.77
2019-06-10T20:51:02.691Z,17.90
2019-06-10T20:53:35.663Z,18.07
2019-06-10T20:56:12.352Z,17.77
2019-06-10T20:58:47.980Z,18.05
2019-06-10T21:01:25.257Z,17.80
2019-06-10T21:03:59.341Z,17.25
2019-06-10T21:06:35.771Z,17.42
2019-06-10T21:09:13.377Z,17.62
2019-06-10T21:11:48.591Z,17.25
2019-06-10T21:14:24.038Z,16.40
2019-06-10T21:17:03.004Z,16.73
2019-06-10T21:19:37.307Z,17.00
2019-06-10T21:22:12.955Z,17.02
2019-06-10T21:24:47.192Z,16.20
2019-06-10T21:27:23.821Z,16.40
2019-06-10T21:29:57.488Z,17.25
2019-06-10T21:32:32.634Z,16.37
2019-06-10T21:35:07.299Z,16.40
2019-06-10T21:37:43.916Z,16.52
2019-06-10T21:40:18.302Z,16.40
2019-06-10T21:42:53.751Z,16.27
2019-06-10T21:45:28.310Z,16.48
2019-06-10T21:48:02.663Z,16.65
2019-06-10T21:50:36.856Z,16.00
2019-06-10T21:53:12.917Z,16.05
2019-06-10T21:55:47.096Z,15.98
2019-06-10T21:58:22.575Z,17.15
2019-06-10T22:01:09.696Z,17.82
2019-06-10T22:03:33.525Z,16.77
2019-06-10T22:06:11.955Z,16.50
2019-06-10T22:08:44.203Z,16.90
2019-06-10T22:11:19.062Z,16.25
2019-06-10T22:13:56.069Z,17.45
2019-06-10T22:16:29.399Z,15.93
2019-06-10T22:19:04.064Z,16.80
2019-06-10T22:21:38.446Z,16.48
2019-06-10T22:24:13.012Z,15.50
2019-06-10T22:26:47.169Z,15.30
2019-06-10T22:29:23.108Z,15.43
2019-06-10T22:31:57.404Z,16.00
2019-06-10T22:34:32.897Z,15.72
2019-06-10T22:37:07.297Z,16.00
2019-06-10T22:39:42.033Z,15.40
2019-06-10T22:42:16.524Z,16.02
2019-06-10T22:44:52.882Z,15.95
2019-06-10T22:47:26.321Z,15.63
2019-06-10T22:50:04.816Z,14.95
2019-06-10T22:52:36.190Z,15.83
2019-06-10T22:55:12.830Z,15.60
2019-06-10T22:57:46.103Z,15.08
2019-06-10T23:00:22.269Z,15.13
2019-06-10T23:02:57.687Z,16.15
2019-06-10T23:05:33.258Z,15.05
2019-06-10T23:08:07.661Z,15.43
2019-06-10T23:10:42.891Z,15.23
2019-06-10T23:13:17.293Z,15.20
2019-06-10T23:15:53.936Z,14.98
2019-06-10T23:18:27.946Z,15.60
2019-06-10T23:21:04.447Z,15.53
2019-06-10T23:23:37.975Z,14.70
2019-06-10T23:26:13.090Z,15.20
2019-06-10T23:28:47.571Z,15.75
2019-06-10T23:31:23.074Z,15.23
2019-06-10T23:33:57.319Z,15.15
2019-06-10T23:36:32.714Z,14.87
2019-06-10T23:39:07.547Z,15.45
2019-06-10T23:41:43.366Z,14.78
2019-06-10T23:44:17.264Z,15.03
2019-06-10T23:46:51.234Z,14.95
2019-06-10T23:49:25.519Z,14.78
2019-06-10T23:52:00.938Z,15.58
2019-06-10T23:54:35.788Z,14.83
2019-06-10T23:57:13.035Z,14.85
2019-06-10T23:59:47.098Z,15.05
